Time;durP1;ratioP1;P1;durP2;ratioP2;P2;SDS_P1;SDS_P2;PMS_P1;PMS_P2;Temp;Humidity;BMP_temperature;BMP_pressure;BME280_temperature;BME280_humidity;BME280_pressure;Samples;Min_cycle;Max_cycle;Signal;HPM_P1;HPM_P2
2022/10/08 00:00:07;;;;;;;31.52;19.40;;;307.30;2304.00;;;;;;5075973;28;20028;-76
2022/10/08 00:02:32;;;;;;;24.70;17.20;;;282.40;2278.40;;;;;;5073504;28;20086;-76
2022/10/08 00:04:58;;;;;;;25.02;17.05;;;282.20;2278.40;;;;;;5076481;28;20027;-76
2022/10/08 00:07:24;;;;;;;28.55;19.00;;;282.40;2278.40;;;;;;5074621;28;20460;-76
2022/10/08 00:09:50;;;;;;;26.73;17.05;;;282.20;2278.40;;;;;;5076296;28;20117;-76
2022/10/08 00:12:19;;;;;;;26.60;16.30;;;282.10;2278.40;;;;;;5074849;28;20028;-75
2022/10/08 00:14:44;;;;;;;26.95;16.77;;;282.10;2278.40;;;;;;5074551;28;20032;-76
2022/10/08 00:17:10;;;;;;;29.27;18.55;;;282.30;2278.40;;;;;;5075937;28;20044;-76
2022/10/08 00:19:36;;;;;;;30.17;19.02;;;282.00;2278.40;;;;;;5074428;28;20035;-75
2022/10/08 00:22:02;;;;;;;42.40;24.25;;;282.20;2278.40;;;;;;5074661;28;20029;-76
2022/10/08 00:24:27;;;;;;;38.63;25.15;;;282.20;2278.40;;;;;;5074720;28;20460;-76
2022/10/08 00:26:53;;;;;;;29.35;20.63;;;282.10;2278.40;;;;;;5074347;28;20085;-76
2022/10/08 00:29:21;;;;;;;35.50;22.30;;;282.00;2278.40;;;;;;5075670;28;20020;-76
2022/10/08 00:31:48;;;;;;;30.55;19.17;;;282.10;2278.40;;;;;;5074494;28;20029;-75
2022/10/08 00:34:20;;;;;;;29.48;18.67;;;282.20;2278.40;;;;;;5074213;28;20034;-76
2022/10/08 00:36:51;;;;;;;28.00;19.73;;;282.00;2278.40;;;;;;5075464;28;20428;-75
2022/10/08 00:39:19;;;;;;;28.73;18.92;;;282.10;2278.40;;;;;;5074291;28;20036;-76
2022/10/08 00:41:49;;;;;;;25.38;18.45;;;282.00;2278.40;;;;;;5074030;28;20028;-76
2022/10/08 00:44:45;;;;;;;26.45;18.42;;;281.80;2278.40;;;;;;5073998;28;20082;-76
2022/10/08 00:47:26;;;;;;;22.80;16.90;;;281.80;2278.40;;;;;;5074218;28;20029;-75
2022/10/08 00:49:56;;;;;;;24.35;17.77;;;281.80;2278.40;;;;;;5073983;28;20391;-76
2022/10/08 00:52:25;;;;;;;21.00;16.23;;;281.80;2278.40;;;;;;5074146;28;20029;-76
2022/10/08 00:54:51;;;;;;;25.65;15.95;;;281.90;2278.40;;;;;;5074783;28;20532;-75
2022/10/08 00:57:19;;;;;;;23.55;14.52;;;282.10;2278.40;;;;;;5075584;28;20025;-76
2022/10/08 00:59:44;;;;;;;19.08;15.23;;;281.80;2278.40;;;;;;5073948;28;20403;-76
2022/10/08 01:02:12;;;;;;;29.85;18.90;;;281.80;2278.40;;;;;;5073704;28;20036;-75
2022/10/08 01:04:41;;;;;;;21.65;15.27;;;281.60;2278.40;;;;;;5073835;28;20021;-75
2022/10/08 01:07:29;;;;;;;22.20;15.15;;;256.90;2252.80;;;;;;5073384;28;20436;-75
2022/10/08 01:10:09;;;;;;;21.08;15.35;;;281.70;2278.40;;;;;;5073309;28;20082;-75
2022/10/08 01:12:58;;;;;;;21.02;16.00;;;281.80;2278.40;;;;;;5074829;28;20464;-76
2022/10/08 01:15:59;;;;;;;38.08;22.08;;;281.60;2278.40;;;;;;5074690;28;20387;-75
2022/10/08 01:18:52;;;;;;;26.63;19.10;;;256.90;2252.80;;;;;;5038220;28;20128;-75
2022/10/08 01:21:46;;;;;;;26.48;17.70;;;281.70;2278.40;;;;;;5066147;28;20037;-75
2022/10/08 01:27:42;;;;;;;30.98;21.90;;;281.80;2278.40;;;;;;5065116;28;20035;-75
2022/10/08 01:30:13;;;;;;;23.48;15.68;;;281.70;2278.40;;;;;;5073960;28;20052;-75
2022/10/08 01:32:50;;;;;;;25.13;15.50;;;256.90;2252.80;;;;;;5073371;28;20029;-76
2022/10/08 01:35:25;;;;;;;24.83;18.70;;;281.70;2278.40;;;;;;5073368;28;20481;-75
2022/10/08 01:37:54;;;;;;;25.58;18.15;;;281.70;2278.40;;;;;;5072875;28;20033;-75
2022/10/08 01:40:26;;;;;;;26.08;18.83;;;256.80;2252.80;;;;;;5072170;28;20169;-75
2022/10/08 01:42:54;;;;;;;31.23;20.17;;;281.60;2278.40;;;;;;5090059;28;20020;-75
2022/10/08 01:45:37;;;;;;;23.50;14.90;;;256.90;2252.80;;;;;;5071827;28;20028;-75
2022/10/08 01:48:09;;;;;;;21.77;16.27;;;256.80;2252.80;;;;;;5074225;28;20016;-75
2022/10/08 01:50:52;;;;;;;23.92;15.07;;;256.60;2252.80;;;;;;5072800;28;20028;-75
2022/10/08 01:53:20;;;;;;;22.70;14.75;;;256.50;2252.80;;;;;;5074319;28;20029;-75
2022/10/08 01:55:50;;;;;;;21.40;14.32;;;256.60;2252.80;;;;;;5073997;28;20020;-75
2022/10/08 01:58:29;;;;;;;22.58;15.05;;;256.70;2252.80;;;;;;5073636;28;20162;-75
2022/10/08 02:00:58;;;;;;;23.50;15.68;;;256.60;2252.80;;;;;;5074075;28;20032;-75
2022/10/08 02:03:24;;;;;;;26.25;15.02;;;256.60;2252.80;;;;;;5089633;28;20375;-75
2022/10/08 02:05:54;;;;;;;21.35;13.93;;;256.10;2252.80;;;;;;5072431;28;20142;-75
2022/10/08 02:08:21;;;;;;;21.90;13.52;;;;;;;;;;5074008;28;20079;-75
2022/10/08 02:10:47;;;;;;;24.98;15.27;;;;;;;;;;5074700;28;20035;-75
2022/10/08 02:13:14;;;;;;;27.85;16.88;;;;;;;;;;5073609;28;20021;-76
2022/10/08 02:15:43;;;;;;;23.98;15.30;;;256.30;2252.80;;;;;;5071231;28;20440;-75
2022/10/08 02:18:27;;;;;;;25.80;15.45;;;256.30;2252.80;;;;;;5071621;28;20070;-75
2022/10/08 02:21:03;;;;;;;25.90;15.43;;;231.30;2252.80;;;;;;5072156;28;20081;-76
2022/10/08 02:23:46;;;;;;;25.33;15.43;;;256.00;2252.80;;;;;;5073782;28;20024;-75
2022/10/08 02:26:19;;;;;;;30.92;17.65;;;256.10;2252.80;;;;;;5072273;28;20345;-76
2022/10/08 02:28:57;;;;;;;28.35;16.38;;;256.30;2252.80;;;;;;5072540;28;20387;-76
2022/10/08 02:31:56;;;;;;;34.17;20.13;;;256.70;2252.80;;;;;;5073757;28;20093;-75
2022/10/08 02:34:28;;;;;;;29.85;18.42;;;256.60;2252.80;;;;;;5072075;28;20032;-75
2022/10/08 02:37:11;;;;;;;23.80;14.27;;;256.50;2252.80;;;;;;5072366;28;20039;-76
2022/10/08 02:39:42;;;;;;;31.25;17.70;;;256.40;2252.80;;;;;;5072011;28;20036;-75
2022/10/08 02:42:12;;;;;;;21.38;14.85;;;256.40;2252.80;;;;;;5073989;28;20058;-75
2022/10/08 02:44:45;;;;;;;26.13;15.57;;;256.40;2252.80;;;;;;5072343;28;20024;-76
2022/10/08 02:47:15;;;;;;;23.60;15.45;;;231.30;2252.80;;;;;;5073069;28;20028;-75
2022/10/08 02:49:45;;;;;;;23.83;13.93;;;231.20;2252.80;;;;;;5072287;28;20078;-76
2022/10/08 02:52:13;;;;;;;19.65;12.00;;;;;;;;;;5072279;28;20460;-75
2022/10/08 02:54:41;;;;;;;22.75;12.07;;;;;;;;;;5071952;28;20027;-75
2022/10/08 02:57:13;;;;;;;19.02;13.88;;;;;;;;;;5073568;28;20099;-76
2022/10/08 02:59:38;;;;;;;19.13;12.45;;;256.10;2252.80;;;;;;5072071;28;20028;-75
2022/10/08 03:02:05;;;;;;;21.45;12.43;;;256.00;2252.80;;;;;;5073214;28;20112;-76
2022/10/08 03:04:49;;;;;;;19.73;12.90;;;231.30;2252.80;;;;;;5072080;28;20032;-75
2022/10/08 03:07:16;;;;;;;22.42;13.18;;;231.20;2252.80;;;;;;5072096;28;20020;-75
2022/10/08 03:09:44;;;;;;;19.00;12.82;;;231.20;2252.80;;;;;;5071750;28;20040;-75
2022/10/08 03:12:11;;;;;;;16.88;11.55;;;231.10;2252.80;;;;;;5072029;28;20480;-75
2022/10/08 03:14:40;;;;;;;16.35;11.45;;;231.20;2252.80;;;;;;5073252;28;20028;-75
2022/10/08 03:17:07;;;;;;;19.13;12.02;;;231.20;2252.80;;;;;;5071657;28;20052;-75
2022/10/08 03:19:34;;;;;;;17.10;12.60;;;231.20;2252.80;;;;;;5071899;28;20029;-76
2022/10/08 03:22:01;;;;;;;19.35;13.23;;;231.20;2252.80;;;;;;5071585;28;20030;-76
2022/10/08 03:24:27;;;;;;;19.52;13.00;;;231.00;2252.80;;;;;;5071768;28;20480;-75
2022/10/08 03:26:53;;;;;;;16.25;11.98;;;231.30;2252.80;;;;;;5088337;28;20040;-75
2022/10/08 03:29:19;;;;;;;15.68;11.70;;;230.90;2252.80;;;;;;5072226;28;20137;-75
2022/10/08 03:31:48;;;;;;;17.02;12.10;;;230.80;2252.80;;;;;;5075214;28;20468;-75
2022/10/08 03:34:14;;;;;;;17.50;11.90;;;230.90;2252.80;;;;;;5075585;28;20518;-75
2022/10/08 03:36:40;;;;;;;15.82;12.18;;;230.90;2252.80;;;;;;5076554;28;20063;-77
2022/10/08 03:39:05;;;;;;;18.95;12.23;;;231.10;2252.80;;;;;;5075513;28;20025;-76
2022/10/08 03:41:31;;;;;;;19.52;12.07;;;230.90;2252.80;;;;;;5093802;28;20035;-75
2022/10/08 03:44:00;;;;;;;23.88;14.85;;;230.90;2252.80;;;;;;5094898;28;20462;-75
2022/10/08 03:46:26;;;;;;;24.30;12.57;;;230.70;2252.80;;;;;;5096300;28;20031;-75
2022/10/08 03:48:52;;;;;;;20.50;14.27;;;230.70;2252.80;;;;;;5096989;28;20028;-75
2022/10/08 03:51:18;;;;;;;21.90;12.25;;;;;;;;;;5095572;28;20433;-75
2022/10/08 03:53:45;;;;;;;22.77;14.45;;;;;;;;;;5096817;28;20019;-75
2022/10/08 03:56:15;;;;;;;22.73;13.13;;;;;;;;;;5096515;28;20024;-75
2022/10/08 03:58:41;;;;;;;23.10;14.18;;;;;;;;;;5095129;28;20036;-75
2022/10/08 04:01:17;;;;;;;24.65;14.80;;;;;;;;;;5095298;28;20414;-75
2022/10/08 04:03:46;;;;;;;24.38;15.30;;;;;;;;;;5095125;28;20074;-75
2022/10/08 04:06:13;;;;;;;23.58;14.77;;;;;;;;;;5096971;28;20099;-76
2022/10/08 04:08:39;;;;;;;24.67;14.70;;;230.60;2252.80;;;;;;5095314;28;20027;-75
2022/10/08 04:11:13;;;;;;;20.77;13.43;;;230.40;2252.80;;;;;;5094902;28;20050;-75
2022/10/08 04:13:39;;;;;;;25.48;14.27;;;230.40;2252.80;;;;;;5096295;28;20031;-75
2022/10/08 04:16:11;;;;;;;22.30;14.57;;;230.40;2252.80;;;;;;5096424;28;20051;-75
2022/10/08 04:18:37;;;;;;;22.83;14.98;;;230.60;2252.80;;;;;;5094285;28;20139;-75
2022/10/08 04:21:06;;;;;;;19.85;14.00;;;231.00;2252.80;;;;;;5094944;28;20036;-75
2022/10/08 04:23:33;;;;;;;21.65;14.50;;;230.60;2252.80;;;;;;5094932;28;20028;-75
2022/10/08 04:25:59;;;;;;;23.95;14.30;;;230.50;2252.80;;;;;;5095863;28;20032;-75
2022/10/08 04:28:25;;;;;;;24.13;14.70;;;230.40;2252.80;;;;;;5095838;28;20121;-75
2022/10/08 04:31:02;;;;;;;26.80;16.85;;;230.60;2252.80;;;;;;5094786;28;20028;-75
2022/10/08 04:33:30;;;;;;;23.55;14.77;;;230.60;2252.80;;;;;;5094516;28;20031;-75
2022/10/08 04:35:57;;;;;;;22.25;13.95;;;230.60;2252.80;;;;;;5094705;28;20387;-75
2022/10/08 04:38:23;;;;;;;21.55;13.95;;;230.70;2252.80;;;;;;5094677;28;20074;-75
2022/10/08 04:41:00;;;;;;;19.92;12.85;;;230.70;2252.80;;;;;;5094798;28;20034;-75
2022/10/08 04:43:25;;;;;;;15.45;11.75;;;230.70;2252.80;;;;;;5096186;28;20032;-76
2022/10/08 04:45:51;;;;;;;18.52;11.88;;;230.80;2252.80;;;;;;5094240;28;20039;-76
2022/10/08 04:48:17;;;;;;;17.30;11.98;;;230.70;2252.80;;;;;;5100921;28;20024;-76
2022/10/08 04:50:43;;;;;;;19.05;12.07;;;230.70;2252.80;;;;;;5119788;28;20052;-75
2022/10/08 04:53:08;;;;;;;19.70;14.68;;;230.80;2252.80;;;;;;5120041;28;20013;-76
2022/10/08 04:55:34;;;;;;;31.77;18.98;;;230.60;2252.80;;;;;;5110805;28;20031;-76
2022/10/08 04:58:00;;;;;;;35.20;27.83;;;230.60;2252.80;;;;;;5095748;28;20569;-76
2022/10/08 05:00:26;;;;;;;30.88;19.85;;;230.60;2252.80;;;;;;5094458;28;20032;-75
2022/10/08 05:02:52;;;;;;;23.95;16.48;;;230.70;2252.80;;;;;;5094263;28;20486;-76
2022/10/08 05:05:18;;;;;;;22.95;18.23;;;230.70;2252.80;;;;;;5094697;28;20101;-76
2022/10/08 05:07:44;;;;;;;20.13;16.00;;;230.60;2252.80;;;;;;5094207;28;20035;-76
2022/10/08 05:10:10;;;;;;;24.73;16.92;;;230.80;2252.80;;;;;;5087877;28;20422;-76
2022/10/08 05:12:35;;;;;;;27.10;18.25;;;230.50;2252.80;;;;;;5074770;28;20412;-76
2022/10/08 05:15:01;;;;;;;27.55;20.20;;;230.40;2252.80;;;;;;5072261;28;20439;-75
2022/10/08 05:17:27;;;;;;;31.02;22.10;;;205.70;2252.80;;;;;;5074520;28;20053;-77
2022/10/08 05:19:53;;;;;;;28.92;19.42;;;205.70;2252.80;;;;;;5073560;28;20033;-76
2022/10/08 05:22:18;;;;;;;24.95;17.08;;;230.40;2252.80;;;;;;5073289;28;20025;-76
2022/10/08 05:24:44;;;;;;;25.98;18.65;;;230.60;2252.80;;;;;;5073543;28;20020;-76
2022/10/08 05:27:10;;;;;;;27.58;18.83;;;231.00;2252.80;;;;;;5074766;28;20134;-76
2022/10/08 05:29:36;;;;;;;27.45;19.05;;;;;;;;;;5074118;28;20035;-76
2022/10/08 05:32:02;;;;;;;28.75;20.30;;;231.10;2252.80;;;;;;5073362;28;20357;-76
2022/10/08 05:34:28;;;;;;;28.02;17.65;;;231.00;2252.80;;;;;;5073325;28;20032;-76
2022/10/08 05:36:54;;;;;;;30.95;19.40;;;;;;;;;;5074583;28;20036;-76
2022/10/08 05:39:20;;;;;;;27.38;18.67;;;;;;;;;;5073219;28;20379;-75
2022/10/08 05:41:46;;;;;;;28.27;19.65;;;;;;;;;;5094358;28;20040;-76
2022/10/08 05:44:12;;;;;;;33.00;19.25;;;;;;;;;;5092639;28;20043;-75
2022/10/08 05:46:39;;;;;;;29.40;20.83;;;;;;;;;;5093124;28;20024;-76
2022/10/08 05:49:06;;;;;;;27.35;20.20;;;;;;;;;;5093057;28;20020;-75
2022/10/08 05:51:32;;;;;;;29.08;20.05;;;;;;;;;;5093330;28;20460;-76
2022/10/08 05:53:59;;;;;;;33.00;20.58;;;;;;;;;;5094876;28;20038;-76
2022/10/08 05:56:26;;;;;;;31.13;21.08;;;230.60;2252.80;;;;;;5094178;28;20031;-76
2022/10/08 05:58:53;;;;;;;29.88;21.23;;;230.60;2252.80;;;;;;5093124;28;20111;-75
2022/10/08 06:01:24;;;;;;;37.72;23.67;;;230.60;2252.80;;;;;;5094355;28;20463;-76
2022/10/08 06:03:52;;;;;;;35.80;24.38;;;230.40;2252.80;;;;;;5094118;28;20032;-76
2022/10/08 06:06:20;;;;;;;38.08;26.02;;;230.60;2252.80;;;;;;5092688;28;20036;-76
2022/10/08 06:08:46;;;;;;;36.60;24.50;;;230.60;2252.80;;;;;;5092975;28;20024;-76
2022/10/08 06:11:12;;;;;;;33.60;23.50;;;230.90;2252.80;;;;;;5093911;28;20081;-76
2022/10/08 06:13:38;;;;;;;32.80;22.38;;;230.90;2252.80;;;;;;5092914;28;20024;-76
2022/10/08 06:16:06;;;;;;;31.02;20.50;;;;;;;;;;5092871;28;20379;-76
2022/10/08 06:18:33;;;;;;;30.67;21.00;;;;;;;;;;5093931;28;20491;-76
2022/10/08 06:21:10;;;;;;;28.23;20.10;;;231.10;2252.80;;;;;;5092801;28;20024;-76
2022/10/08 06:23:39;;;;;;;32.45;22.98;;;231.00;2252.80;;;;;;5093741;28;20048;-76
2022/10/08 06:26:06;;;;;;;32.30;24.35;;;;;;;;;;5092740;28;20107;-76
2022/10/08 06:28:33;;;;;;;90.15;61.00;;;231.30;2252.80;;;;;;5093626;28;20012;-76
2022/10/08 06:30:59;;;;;;;37.28;27.92;;;230.90;2252.80;;;;;;5092288;28;20067;-76
2022/10/08 06:33:25;;;;;;;40.90;28.98;;;230.50;2252.80;;;;;;5093936;28;20042;-76
2022/10/08 06:35:51;;;;;;;36.20;26.33;;;230.80;2252.80;;;;;;5092567;28;20118;-76
2022/10/08 06:38:18;;;;;;;49.08;34.35;;;231.10;2252.80;;;;;;5093539;28;20107;-76
2022/10/08 06:40:44;;;;;;;41.90;29.40;;;231.00;2252.80;;;;;;5092411;28;20024;-76
2022/10/08 06:43:18;;;;;;;39.50;26.30;;;231.10;2252.80;;;;;;5092518;28;20149;-76
2022/10/08 06:45:45;;;;;;;33.58;22.23;;;231.20;2252.80;;;;;;5093599;28;20028;-76
2022/10/08 06:48:12;;;;;;;32.97;22.75;;;256.10;2252.80;;;;;;5092395;28;20028;-76
2022/10/08 06:50:38;;;;;;;27.05;21.00;;;256.20;2252.80;;;;;;5092437;28;20028;-76
2022/10/08 06:53:06;;;;;;;27.02;20.23;;;256.10;2252.80;;;;;;5092201;28;20077;-76
2022/10/08 06:55:33;;;;;;;27.05;18.13;;;256.30;2252.80;;;;;;5093300;28;20016;-77
2022/10/08 06:57:59;;;;;;;30.85;21.70;;;256.40;2252.80;;;;;;5092348;28;20031;-77
2022/10/08 07:00:25;;;;;;;34.20;22.90;;;256.40;2252.80;;;;;;5091956;28;20464;-77
2022/10/08 07:02:52;;;;;;;32.22;22.25;;;256.40;2252.80;;;;;;5092253;28;20158;-74
2022/10/08 07:05:18;;;;;;;28.35;21.30;;;256.70;2252.80;;;;;;5096560;28;20376;-75
2022/10/08 07:07:44;;;;;;;31.75;23.83;;;256.90;2252.80;;;;;;5097451;28;20020;-75
2022/10/08 07:10:10;;;;;;;39.28;24.52;;;281.70;2278.40;;;;;;5097660;28;20047;-75
2022/10/08 07:12:36;;;;;;;29.02;21.65;;;281.70;2278.40;;;;;;5097342;28;20441;-74
2022/10/08 07:15:02;;;;;;;34.22;21.10;;;281.90;2278.40;;;;;;5096316;28;20036;-74
2022/10/08 07:17:28;;;;;;;29.40;21.42;;;282.10;2278.40;;;;;;5096006;28;20173;-74
2022/10/08 07:19:55;;;;;;;36.75;24.20;;;282.30;2278.40;;;;;;5097187;28;20036;-75
2022/10/08 07:22:21;;;;;;;28.40;20.52;;;282.40;2278.40;;;;;;5097450;28;20075;-75
2022/10/08 07:24:47;;;;;;;29.67;18.45;;;282.40;2278.40;;;;;;5096162;28;20028;-75
2022/10/08 07:27:13;;;;;;;25.00;18.50;;;282.50;2278.40;;;;;;5097314;28;20460;-75
2022/10/08 07:29:39;;;;;;;52.35;32.25;;;282.50;2278.40;;;;;;5096065;28;20512;-75
2022/10/08 07:32:05;;;;;;;32.55;21.00;;;307.30;2304.00;;;;;;5095911;28;20020;-75
2022/10/08 07:34:30;;;;;;;23.77;17.40;;;307.40;2304.00;;;;;;5095482;28;20031;-73
2022/10/08 07:36:56;;;;;;;23.75;17.92;;;307.50;2304.00;;;;;;5095819;28;20119;-73
2022/10/08 07:39:22;;;;;;;24.83;16.98;;;307.60;2304.00;;;;;;5096724;28;20032;-74
2022/10/08 07:41:49;;;;;;;21.00;14.48;;;307.80;2304.00;;;;;;5095478;28;20028;-75
2022/10/08 07:44:16;;;;;;;20.35;14.82;;;307.80;2304.00;;;;;;5096734;28;20024;-75
2022/10/08 07:46:49;;;;;;;18.92;15.02;;;307.90;2304.00;;;;;;5097235;28;20035;-72
2022/10/08 07:49:17;;;;;;;21.00;16.42;;;308.00;2304.00;;;;;;5095401;28;20101;-75
2022/10/08 07:51:43;;;;;;;30.58;17.67;;;308.00;2304.00;;;;;;5095445;28;20072;-75
2022/10/08 07:54:13;;;;;;;17.70;14.48;;;308.10;2304.00;;;;;;5095432;28;20060;-72
2022/10/08 07:56:39;;;;;;;16.35;12.68;;;332.80;2329.60;;;;;;5095223;28;20035;-72
2022/10/08 07:59:06;;;;;;;19.30;12.85;;;332.90;2329.60;;;;;;5095376;28;20028;-74
2022/10/08 08:01:33;;;;;;;19.10;13.18;;;333.10;2329.60;;;;;;5096279;28;20024;-75
2022/10/08 08:04:04;;;;;;;14.65;11.18;;;333.10;2329.60;;;;;;5096551;28;20039;-74
2022/10/08 08:06:30;;;;;;;20.23;11.70;;;333.20;2329.60;;;;;;5096144;28;20111;-73
2022/10/08 08:08:59;;;;;;;18.27;12.13;;;333.40;2329.60;;;;;;5096095;28;20066;-74
2022/10/08 08:11:25;;;;;;;17.02;11.88;;;333.50;2329.60;;;;;;5092247;28;20024;-74
2022/10/08 08:13:52;;;;;;;17.02;11.70;;;333.70;2329.60;;;;;;5094786;28;20032;-74
2022/10/08 08:16:26;;;;;;;17.73;12.93;;;358.50;2329.60;;;;;;5092509;28;20067;-74
2022/10/08 08:18:57;;;;;;;14.98;11.18;;;358.70;2329.60;;;;;;5096065;28;20048;-74
2022/10/08 08:21:29;;;;;;;22.95;12.38;;;358.80;2329.60;;;;;;5096251;28;20024;-73
2022/10/08 08:23:57;;;;;;;17.98;12.18;;;358.90;2329.60;;;;;;5095976;28;20056;-74
2022/10/08 08:26:29;;;;;;;14.25;9.82;;;358.90;2329.60;;;;;;5095808;28;20537;-72
2022/10/08 08:29:20;;;;;;;16.63;11.32;;;359.00;2329.60;;;;;;5095868;28;20531;-74
2022/10/08 08:31:47;;;;;;;15.50;10.32;;;359.10;2329.60;;;;;;5094439;28;20079;-73
2022/10/08 08:34:16;;;;;;;19.60;12.05;;;359.20;2329.60;;;;;;5096010;28;20032;-73
2022/10/08 08:36:46;;;;;;;17.48;9.98;;;359.30;2329.60;;;;;;5093270;28;20035;-76
2022/10/08 08:39:17;;;;;;;12.60;9.77;;;359.30;2329.60;;;;;;5080422;28;20024;-75
2022/10/08 08:42:16;;;;;;;14.93;10.30;;;384.00;2329.60;;;;;;5089755;28;20038;-73
2022/10/08 08:44:45;;;;;;;16.05;9.85;;;384.20;2329.60;;;;;;5080691;28;20082;-74
2022/10/08 08:47:19;;;;;;;15.75;9.82;;;384.40;2329.60;;;;;;5094006;28;20024;-74
2022/10/08 08:50:15;;;;;;;15.77;10.80;;;384.40;2329.60;;;;;;5077957;28;20439;-74
2022/10/08 08:52:42;;;;;;;15.93;10.30;;;384.60;2329.60;;;;;;5065359;28;20044;-74
2022/10/08 08:55:20;;;;;;;13.32;10.35;;;384.70;2329.60;;;;;;5093719;28;20027;-73
2022/10/08 08:57:56;;;;;;;13.45;10.25;;;;;;;;;;5077372;28;20020;-73
2022/10/08 09:00:23;;;;;;;12.43;8.90;;;;;;;;;;5094655;28;20018;-73
2022/10/08 09:02:57;;;;;;;14.95;9.32;;;;;;;;;;5094723;28;20460;-74
2022/10/08 09:05:24;;;;;;;12.63;8.48;;;;;;;;;;5080444;28;20028;-73
2022/10/08 09:07:57;;;;;;;16.33;9.88;;;;;;;;;;5091281;28;20617;-73
2022/10/08 09:10:27;;;;;;;9.95;8.23;;;;;;;;;;5079246;28;20035;-73
2022/10/08 09:12:53;;;;;;;10.20;7.60;;;;;;;;;;5094127;28;20044;-73
2022/10/08 09:15:23;;;;;;;11.00;7.93;;;;;;;;;;5082439;28;20024;-73
2022/10/08 09:17:51;;;;;;;13.88;8.02;;;;;;;;;;5074474;28;20512;-73
2022/10/08 09:20:18;;;;;;;12.23;8.57;;;;;;;;;;5073033;28;20111;-74
2022/10/08 09:22:44;;;;;;;11.55;7.55;;;;;;;;;;5073172;28;20028;-73
2022/10/08 09:25:13;;;;;;;13.50;8.40;;;;;;;;;;5072320;28;20494;-75
2022/10/08 09:27:43;;;;;;;15.63;9.05;;;;;;;;;;5089990;28;20024;-76
2022/10/08 09:30:28;;;;;;;12.65;7.90;;;;;;;;;;5086285;28;20043;-73
2022/10/08 09:32:56;;;;;;;12.35;8.82;;;;;;;;;;5082654;28;20024;-76
2022/10/08 09:35:23;;;;;;;15.73;8.90;;;;;;;;;;5092791;28;20034;-73
2022/10/08 09:37:50;;;;;;;13.18;8.02;;;;;;;;;;5090606;28;20379;-73
2022/10/08 09:40:20;;;;;;;13.85;9.63;;;;;;;;;;5090512;28;20459;-73
2022/10/08 09:43:07;;;;;;;10.32;8.27;;;;;;;;;;5081763;28;20020;-73
2022/10/08 09:45:34;;;;;;;11.63;7.32;;;;;;;;;;5067582;28;20032;-73
2022/10/08 09:48:19;;;;;;;13.30;7.20;;;;;;;;;;5089926;28;20066;-73
2022/10/08 09:50:53;;;;;;;15.65;7.65;;;;;;;;;;5084034;28;20024;-73
2022/10/08 09:53:21;;;;;;;12.68;7.45;;;;;;;;;;5078666;28;20020;-73
2022/10/08 09:55:59;;;;;;;8.60;6.93;;;;;;;;;;5076289;28;20012;-73
2022/10/08 09:58:28;;;;;;;8.98;6.10;;;;;;;;;;5075130;28;20533;-76
2022/10/08 10:01:03;;;;;;;11.70;7.57;;;;;;;;;;5088664;28;20532;-73
2022/10/08 10:03:30;;;;;;;15.55;8.05;;;;;;;;;;5108289;28;20151;-73
2022/10/08 10:05:58;;;;;;;11.50;7.80;;;;;;;;;;5092235;28;20032;-73
2022/10/08 10:08:45;;;;;;;11.77;7.50;;;;;;;;;;5092325;28;20077;-73
2022/10/08 10:11:13;;;;;;;13.25;7.53;;;;;;;;;;5109847;28;20077;-74
2022/10/08 10:13:41;;;;;;;9.15;6.47;;;;;;;;;;5109801;28;20389;-73
2022/10/08 10:16:16;;;;;;;12.50;7.93;;;;;;;;;;5109427;28;20111;-75
2022/10/08 10:18:45;;;;;;;11.20;7.88;;;;;;;;;;5093527;28;20079;-76
2022/10/08 10:21:15;;;;;;;11.80;6.85;;;;;;;;;;5093671;28;20099;-75
2022/10/08 10:23:54;;;;;;;15.27;8.25;;;;;;;;;;5093638;28;20077;-76
2022/10/08 10:26:25;;;;;;;10.95;8.27;;;;;;;;;;5093711;28;20020;-78
2022/10/08 10:28:53;;;;;;;12.65;8.40;;;;;;;;;;5093950;28;20028;-77
2022/10/08 10:31:22;;;;;;;14.38;8.73;;;;;;;;;;5109578;28;20039;-76
2022/10/08 10:33:54;;;;;;;17.05;9.20;;;;;;;;;;5093841;28;20080;-76
2022/10/08 10:36:21;;;;;;;11.25;7.93;;;;;;;;;;5093508;28;20073;-76
2022/10/08 10:39:05;;;;;;;10.98;7.35;;;;;;;;;;5108746;28;20467;-76
2022/10/08 10:42:06;;;;;;;10.48;7.43;;;512.30;2380.80;;;;;;5109466;28;20028;-77
2022/10/08 10:44:47;;;;;;;10.45;6.78;;;512.20;2380.80;;;;;;5086128;28;20143;-77
2022/10/08 10:47:14;;;;;;;10.95;7.32;;;;;;;;;;5109514;28;20379;-78
2022/10/08 10:49:41;;;;;;;14.73;7.68;;;512.60;2380.80;;;;;;5093063;28;20020;-79
2022/10/08 10:52:43;;;;;;;12.35;6.95;;;512.80;2380.80;;;;;;5109404;28;20024;-77
2022/10/08 10:55:15;;;;;;;13.73;7.60;;;;;;;;;;5109471;28;20051;-78
2022/10/08 10:57:47;;;;;;;8.68;6.22;;;;;;;;;;5093375;28;20024;-78
2022/10/08 11:00:19;;;;;;;10.10;5.55;;;;;;;;;;5109267;28;20034;-78
2022/10/08 11:02:49;;;;;;;7.15;5.75;;;;;;;;;;5093314;28;20030;-77
2022/10/08 11:05:21;;;;;;;10.07;6.57;;;;;;;;;;5092998;28;20427;-77
2022/10/08 11:07:55;;;;;;;8.93;6.30;;;538.30;2406.40;;;;;;5093319;28;20096;-76
2022/10/08 11:10:27;;;;;;;10.75;5.50;;;;;;;;;;5109259;28;20060;-76
2022/10/08 11:13:02;;;;;;;8.88;5.95;;;;;;;;;;5093671;28;20012;-77
2022/10/08 11:15:41;;;;;;;10.30;5.55;;;;;;;;;;5109242;28;20020;-77
2022/10/08 11:18:07;;;;;;;8.88;6.20;;;;;;;;;;5108618;28;20097;-78
2022/10/08 11:20:42;;;;;;;15.02;8.80;;;;;;;;;;5092962;28;20550;-76
2022/10/08 11:23:20;;;;;;;8.25;5.75;;;;;;;;;;5109073;28;20078;-76
2022/10/08 11:25:52;;;;;;;8.40;5.75;;;;;;;;;;5108372;28;20020;-78
2022/10/08 11:28:18;;;;;;;11.65;5.43;;;;;;;;;;5093429;28;20024;-78
2022/10/08 11:30:51;;;;;;;8.63;5.80;;;;;;;;;;5108945;28;20108;-78
2022/10/08 11:33:18;;;;;;;7.53;5.22;;;;;;;;;;5108747;28;20035;-77
2022/10/08 11:35:49;;;;;;;8.55;5.85;;;;;;;;;;5108952;28;20111;-77
2022/10/08 11:38:50;;;;;;;8.32;5.25;;;;;;;;;;5093049;28;20474;-78
2022/10/08 11:41:28;;;;;;;8.15;4.70;;;;;;;;;;5053799;28;20020;-78
2022/10/08 11:43:55;;;;;;;9.55;5.35;;;;;;;;;;5086469;28;20033;-79
2022/10/08 11:46:28;;;;;;;8.23;4.72;;;;;;;;;;5092939;28;20039;-77
2022/10/08 11:49:14;;;;;;;11.38;6.25;;;;;;;;;;5093147;28;20111;-80
2022/10/08 11:51:50;;;;;;;7.57;4.85;;;;;;;;;;5084682;28;20043;-80
2022/10/08 11:54:24;;;;;;;8.85;5.03;;;;;;;;;;5112353;28;20024;-79
2022/10/08 11:57:15;;;;;;;7.78;4.95;;;;;;;;;;5097134;28;20027;-77
2022/10/08 11:59:45;;;;;;;8.27;5.30;;;;;;;;;;5096229;28;20111;-76
2022/10/08 12:02:26;;;;;;;7.60;4.45;;;;;;;;;;5103368;28;20048;-76
2022/10/08 12:04:54;;;;;;;10.20;5.40;;;;;;;;;;5138106;28;20079;-76
2022/10/08 12:07:24;;;;;;;8.00;5.18;;;;;;;;;;5121289;28;20016;-76
2022/10/08 12:10:01;;;;;;;8.32;4.85;;;;;;;;;;5120252;28;20085;-78
2022/10/08 12:12:47;;;;;;;10.25;4.43;;;;;;;;;;5112400;28;20467;-77
2022/10/08 12:15:22;;;;;;;7.50;4.47;;;;;;;;;;5112215;28;20023;-79
2022/10/08 12:17:53;;;;;;;8.80;4.88;;;;;;;;;;5112064;28;20442;-79
2022/10/08 12:20:19;;;;;;;8.77;5.38;;;;;;;;;;5096374;28;20074;-78
2022/10/08 12:22:58;;;;;;;7.75;4.93;;;;;;;;;;5111905;28;20028;-79
2022/10/08 12:25:29;;;;;;;10.18;5.88;;;;;;;;;;5111969;28;20047;-79
2022/10/08 12:28:15;;;;;;;8.57;5.07;;;;;;;;;;5095951;28;20038;-77
2022/10/08 12:30:52;;;;;;;11.55;5.78;;;;;;;;;;5111829;28;20101;-79
2022/10/08 12:33:19;;;;;;;9.48;5.68;;;;;;;;;;5111818;28;20020;-78
2022/10/08 12:36:00;;;;;;;8.52;5.72;;;;;;;;;;5111294;28;20031;-77
2022/10/08 12:38:49;;;;;;;8.77;5.68;;;;;;;;;;5095655;28;20095;-77
2022/10/08 12:41:15;;;;;;;9.23;4.82;;;;;;;;;;5094922;28;20033;-78
2022/10/08 12:43:45;;;;;;;10.82;4.32;;;;;;;;;;5074993;28;20033;-77
2022/10/08 12:46:17;;;;;;;8.68;3.95;;;;;;;;;;5074529;28;20020;-78
2022/10/08 12:48:43;;;;;;;;;;;;;;;;;;5075952;28;20092;-77
2022/10/08 12:51:25;;;;;;;5.57;3.17;;;;;;;;;;5091098;28;20007;-77
2022/10/08 12:53:51;;;;;;;;;;;;;;;;;;5074564;28;20029;-78
2022/10/08 12:56:20;;;;;;;12.10;3.60;;;;;;;;;;5090669;28;19965;-77
2022/10/08 12:58:48;;;;;;;6.20;3.95;;;;;;;;;;5074084;28;20111;-79
2022/10/08 13:01:16;;;;;;;7.35;3.67;;;;;;;;;;5075018;28;20157;-77
2022/10/08 13:03:42;;;;;;;5.53;3.90;;;;;;;;;;5073335;28;20024;-77
2022/10/08 13:06:38;;;;;;;11.02;5.22;;;;;;;;;;5074008;28;20025;-77
2022/10/08 13:09:12;;;;;;;7.72;3.67;;;;;;;;;;5070353;28;20033;-77
2022/10/08 13:11:38;;;;;;;7.00;4.80;;;;;;;;;;5092123;28;20031;-78
2022/10/08 13:14:04;;;;;;;9.32;4.90;;;;;;;;;;5093326;28;20023;-80